createdAt,value
2023-01-30T00:01:28.982Z,100275.17
2023-01-30T00:03:57.194Z,100277.51
2023-01-30T00:06:25.354Z,100280.47
2023-01-30T00:08:53.647Z,100274.59
2023-01-30T00:11:21.608Z,100273.17
2023-01-30T00:13:50.510Z,100268.80
2023-01-30T00:16:18.900Z,100266.04
2023-01-30T00:18:48.084Z,100268.07
2023-01-30T00:21:16.230Z,100265.83
2023-01-30T00:23:45.069Z,100263.77
2023-01-30T00:26:13.205Z,100259.95
2023-01-30T00:28:41.745Z,100259.77
2023-01-30T00:31:13.383Z,100252.03
2023-01-30T00:33:41.907Z,100248.97
2023-01-30T00:36:10.442Z,100251.20
2023-01-30T00:38:39.195Z,100251.05
2023-01-30T00:41:11.005Z,100243.95
2023-01-30T00:43:57.826Z,100246.36
2023-01-30T00:46:52.392Z,100243.96
2023-01-30T00:49:20.858Z,100241.77
2023-01-30T00:51:49.949Z,100243.67
2023-01-30T00:54:18.265Z,100238.30
2023-01-30T00:56:46.256Z,100234.30
2023-01-30T00:59:14.290Z,100229.75
2023-01-30T01:01:42.718Z,100224.70
2023-01-30T01:04:10.935Z,100221.09
2023-01-30T01:06:44.391Z,100222.35
2023-01-30T01:09:12.822Z,100226.17
2023-01-30T01:11:41.840Z,100224.80
2023-01-30T01:14:09.911Z,100222.89
2023-01-30T01:16:38.072Z,100217.02
2023-01-30T01:19:06.062Z,100216.66
2023-01-30T01:21:35.830Z,100208.95
2023-01-30T01:24:06.421Z,100210.02
2023-01-30T01:26:35.426Z,100205.33
2023-01-30T01:29:04.357Z,100202.86
2023-01-30T01:31:33.128Z,100199.20
2023-01-30T01:34:01.360Z,100196.44
2023-01-30T01:36:52.270Z,100195.41
2023-01-30T01:39:17.939Z,100197.67
2023-01-30T01:41:46.262Z,100194.23
2023-01-30T01:44:14.772Z,100190.64
2023-01-30T01:46:56.867Z,100185.87
2023-01-30T01:49:29.166Z,100187.23
2023-01-30T01:52:04.132Z,100185.70
2023-01-30T01:54:35.160Z,100184.70
2023-01-30T01:57:05.743Z,100184.38
2023-01-30T01:59:55.261Z,100185.27
2023-01-30T02:02:24.015Z,100183.37
2023-01-30T02:05:03.148Z,100182.33
2023-01-30T02:07:53.493Z,100182.27
2023-01-30T02:10:24.080Z,100179.77
2023-01-30T02:12:52.713Z,100180.60
2023-01-30T02:15:21.809Z,100177.52
2023-01-30T02:17:50.015Z,100173.09
2023-01-30T02:20:26.035Z,100172.41
2023-01-30T02:23:01.104Z,100173.14
2023-01-30T02:25:42.518Z,100169.27
2023-01-30T02:28:28.822Z,100168.45
2023-01-30T02:31:06.087Z,100164.67
2023-01-30T02:33:41.443Z,100164.70
2023-01-30T02:36:48.602Z,100166.95
2023-01-30T02:39:49.679Z,100161.78
2023-01-30T02:42:27.062Z,100159.54
2023-01-30T02:44:55.176Z,100162.13
2023-01-30T02:47:26.120Z,100165.80
2023-01-30T02:50:21.179Z,100163.27
2023-01-30T02:52:49.157Z,100167.60
2023-01-30T02:55:23.167Z,100167.48
2023-01-30T02:57:51.728Z,100164.09
2023-01-30T03:00:44.921Z,100158.71
2023-01-30T03:03:30.916Z,100159.19
2023-01-30T03:06:17.803Z,100154.13
2023-01-30T03:09:04.414Z,100151.17
2023-01-30T03:11:48.191Z,100156.77
2023-01-30T03:14:21.691Z,100152.10
2023-01-30T03:16:50.817Z,100153.05
2023-01-30T03:19:18.783Z,100149.61
2023-01-30T03:21:50.592Z,100149.75
2023-01-30T03:24:18.682Z,100145.95
2023-01-30T03:27:13.239Z,100143.67
2023-01-30T03:29:44.527Z,100146.42
2023-01-30T03:32:12.749Z,100147.64
2023-01-30T03:34:41.957Z,100145.07
2023-01-30T03:37:11.474Z,100143.20
2023-01-30T03:39:39.482Z,100144.27
2023-01-30T03:42:08.560Z,100143.63
2023-01-30T03:44:36.725Z,100138.15
2023-01-30T03:47:05.037Z,100130.83
2023-01-30T03:49:33.116Z,100130.16
2023-01-30T03:52:01.143Z,100131.34
2023-01-30T03:54:29.658Z,100130.48
2023-01-30T03:56:57.623Z,100134.47
2023-01-30T03:59:26.038Z,100133.99
2023-01-30T04:02:02.772Z,100133.87
2023-01-30T04:04:31.390Z,100131.55
2023-01-30T04:06:59.748Z,100131.80
2023-01-30T04:09:28.664Z,100135.59
2023-01-30T04:11:57.926Z,100129.52
2023-01-30T04:14:26.466Z,100124.88
2023-01-30T04:17:21.946Z,100124.25
2023-01-30T04:20:20.461Z,100124.14
2023-01-30T04:22:51.645Z,100119.67
2023-01-30T04:25:21.410Z,100119.88
2023-01-30T04:27:49.769Z,100121.79
2023-01-30T04:30:23.815Z,100120.73
2023-01-30T04:33:00.183Z,100117.27
2023-01-30T04:35:28.318Z,100114.13
2023-01-30T04:37:56.462Z,100114.61
2023-01-30T04:40:27.495Z,100112.69
2023-01-30T04:42:56.505Z,100110.44
2023-01-30T04:45:36.680Z,100108.00
2023-01-30T04:48:05.343Z,100106.84
2023-01-30T04:50:33.592Z,100107.25
2023-01-30T04:53:01.858Z,100103.13
2023-01-30T04:55:30.122Z,100106.47
2023-01-30T04:57:58.679Z,100106.55
2023-01-30T05:00:27.158Z,100101.61
2023-01-30T05:03:01.858Z,100102.30
2023-01-30T05:05:47.371Z,100107.00
2023-01-30T05:08:16.216Z,100102.72
2023-01-30T05:10:44.212Z,100102.02
2023-01-30T05:13:12.946Z,100097.90
2023-01-30T05:15:41.357Z,100093.21
2023-01-30T05:18:09.444Z,100093.86
2023-01-30T05:20:37.641Z,100096.09
2023-01-30T05:23:06.245Z,100096.96
2023-01-30T05:25:35.091Z,100095.33
2023-01-30T05:28:03.382Z,100093.65
2023-01-30T05:30:32.730Z,100093.35
2023-01-30T05:33:00.943Z,100092.13
2023-01-30T05:35:29.448Z,100092.43
2023-01-30T05:37:59.498Z,100092.60
2023-01-30T05:40:28.299Z,100092.05
2023-01-30T05:42:56.370Z,100090.48
2023-01-30T05:45:25.998Z,100092.33
2023-01-30T05:47:58.492Z,100096.61
2023-01-30T05:50:29.710Z,100095.57
2023-01-30T05:52:59.123Z,100093.16
2023-01-30T05:55:27.205Z,100096.23
2023-01-30T05:57:55.356Z,100099.87
2023-01-30T06:00:48.214Z,100102.44
2023-01-30T06:03:16.173Z,100104.31
2023-01-30T08:12:30.394Z,100000.71
2023-01-30T08:14:58.945Z,99994.99
2023-01-30T08:17:27.169Z,99990.29
2023-01-30T08:19:55.444Z,99993.08
2023-01-30T08:22:23.589Z,99981.92
2023-01-30T08:24:51.948Z,99982.41
2023-01-30T08:27:20.003Z,99978.20
2023-01-30T08:29:48.282Z,99971.04
2023-01-30T08:32:16.639Z,99973.49
2023-01-30T08:34:45.900Z,99969.73
2023-01-30T08:37:14.183Z,99967.27
2023-01-30T08:39:42.220Z,99962.98
2023-01-30T08:42:10.191Z,99952.26
2023-01-30T08:44:38.381Z,99945.50
2023-01-30T08:47:06.624Z,99947.53
2023-01-30T08:55:56.037Z,99934.77
2023-01-30T08:58:23.001Z,99928.86
2023-01-30T09:00:49.936Z,99920.99
2023-01-30T09:03:17.410Z,99919.43
2023-01-30T09:05:44.781Z,99915.37
2023-01-30T09:08:11.809Z,99911.39
2023-01-30T09:10:39.239Z,99900.66
2023-01-30T09:13:26.428Z,99897.23
2023-01-30T09:15:54.375Z,99896.58
2023-01-30T09:18:21.011Z,99895.42
2023-01-30T09:20:48.042Z,99890.91
2023-01-30T09:23:15.014Z,99886.66
2023-01-30T09:25:45.620Z,99884.27
2023-01-30T09:28:13.055Z,99879.45
2023-01-30T09:30:39.842Z,99875.48
2023-01-30T09:33:09.586Z,99870.80
2023-01-30T09:35:36.169Z,99862.16
2023-01-30T09:38:04.099Z,99858.84
2023-01-30T09:40:33.607Z,99858.83
2023-01-30T09:43:19.397Z,99853.14
2023-01-30T09:45:49.264Z,99849.59
2023-01-30T09:48:21.000Z,99844.77
2023-01-30T09:50:48.557Z,99835.55
2023-01-30T09:53:29.562Z,99832.89
2023-01-30T09:55:57.555Z,99826.20
2023-01-30T09:58:24.888Z,99823.11
2023-01-30T10:00:54.323Z,99824.98
2023-01-30T10:03:38.464Z,99819.61
2023-01-30T10:06:13.516Z,99809.97
2023-01-30T10:09:00.645Z,99806.54
2023-01-30T10:11:48.942Z,99795.94
2023-01-30T10:14:40.415Z,99794.45
2023-01-30T10:17:40.339Z,99789.56
2023-01-30T10:20:25.391Z,99784.77
2023-01-30T10:23:12.781Z,99789.06
2023-01-30T10:25:47.939Z,99781.49
2023-01-30T10:28:23.969Z,99780.55
2023-01-30T10:30:52.225Z,99768.27
2023-01-30T10:33:32.248Z,99767.11
2023-01-30T10:36:06.601Z,99765.94
2023-01-30T10:38:39.157Z,99756.84
2023-01-30T10:41:30.206Z,99753.13
2023-01-30T10:44:17.800Z,99744.63
2023-01-30T10:47:22.955Z,99736.96
2023-01-30T10:49:52.196Z,99732.39
2023-01-30T10:52:26.591Z,99729.92
2023-01-30T10:55:05.574Z,99714.86
2023-01-30T10:57:58.301Z,99709.80
2023-01-30T11:00:24.884Z,99710.17
2023-01-30T11:02:51.898Z,99701.92
2023-01-30T11:05:21.129Z,99694.44
2023-01-30T11:07:47.998Z,99695.98
2023-01-30T11:10:25.772Z,99692.00
2023-01-30T11:13:00.031Z,99680.19
2023-01-30T11:15:48.266Z,99681.14
2023-01-30T11:19:01.713Z,99679.29
2023-01-30T11:21:05.455Z,99679.36
2023-01-30T11:23:34.043Z,99674.72
2023-01-30T11:26:11.024Z,99670.83
2023-01-30T11:28:40.789Z,99666.11
2023-01-30T11:31:39.944Z,99668.31
2023-01-30T11:34:15.015Z,99657.25
2023-01-30T11:36:41.727Z,99653.98
2023-01-30T11:39:12.037Z,99649.86
2023-01-30T11:41:58.909Z,99644.48
2023-01-30T11:44:26.797Z,99639.35
2023-01-30T11:46:53.666Z,99633.86
2023-01-30T11:49:46.817Z,99628.50
2023-01-30T11:52:08.404Z,99620.58
2023-01-30T11:54:38.355Z,99626.62
2023-01-30T11:57:06.114Z,99624.60
2023-01-30T11:59:38.883Z,99618.60
2023-01-30T12:02:14.346Z,99619.60
2023-01-30T14:18:28.408Z,99525.73
2023-01-30T14:21:20.276Z,99517.45
2023-01-30T14:23:58.812Z,99516.88
2023-01-30T14:26:48.087Z,99513.98
2023-01-30T14:29:37.761Z,99513.50
2023-01-30T14:32:10.205Z,99510.82
2023-01-30T14:34:39.664Z,99508.81
2023-01-30T14:37:44.937Z,99513.73
2023-01-30T14:40:21.966Z,99509.39
2023-01-30T14:43:12.416Z,99509.84
2023-01-30T14:45:50.991Z,99507.70
2023-01-30T14:48:29.758Z,99505.88
2023-01-30T14:51:16.462Z,99505.03
2023-01-30T14:54:04.902Z,99504.48
2023-01-30T14:56:50.120Z,99497.45
2023-01-30T14:59:37.148Z,99496.36
2023-01-30T15:02:14.896Z,99497.50
2023-01-30T15:05:08.381Z,99497.00
2023-01-30T15:07:43.918Z,99494.10
2023-01-30T15:10:37.173Z,99492.95
2023-01-30T15:13:24.780Z,99494.90
2023-01-30T15:16:11.523Z,99491.63
2023-01-30T15:19:02.812Z,99490.58
2023-01-30T15:21:46.352Z,99487.61
2023-01-30T15:24:35.630Z,99487.79
2023-01-30T15:27:11.223Z,99486.94
2023-01-30T15:29:52.822Z,99484.05
2023-01-30T15:32:22.664Z,99483.80
2023-01-30T15:34:55.318Z,99480.77
2023-01-30T15:37:30.112Z,99476.08
2023-01-30T15:40:18.260Z,99479.17
2023-01-30T15:42:54.062Z,99483.33
2023-01-30T15:45:27.683Z,99479.90
2023-01-30T15:48:20.637Z,99476.26
2023-01-30T15:50:49.505Z,99473.00
2023-01-30T15:53:17.503Z,99469.25
2023-01-30T15:55:52.023Z,99469.42
2023-01-30T15:58:22.092Z,99463.38
2023-01-30T16:00:56.297Z,99463.52
2023-01-30T16:03:31.744Z,99462.95
2023-01-30T16:05:59.776Z,99460.63
2023-01-30T16:08:33.392Z,99459.73
2023-01-30T16:11:02.047Z,99458.02
2023-01-30T16:13:30.425Z,99458.38
2023-01-30T16:16:08.521Z,99453.39
2023-01-30T16:18:39.074Z,99453.17
2023-01-30T16:21:17.283Z,99459.19
2023-01-30T16:24:06.068Z,99456.75
2023-01-30T16:26:35.503Z,99452.95
2023-01-30T16:29:06.907Z,99457.55
2023-01-30T16:31:38.482Z,99456.45
2023-01-30T16:34:06.696Z,99456.31
2023-01-30T16:36:41.111Z,99453.88
2023-01-30T16:39:43.130Z,99447.69
2023-01-30T16:42:26.282Z,99446.31
2023-01-30T16:45:16.078Z,99443.42
2023-01-30T16:47:44.484Z,99441.70
2023-01-30T16:50:21.302Z,99440.70
2023-01-30T16:52:53.462Z,99443.70
2023-01-30T16:55:23.402Z,99444.05
2023-01-30T16:57:55.847Z,99440.53
2023-01-30T17:00:26.107Z,99442.91
2023-01-30T17:03:08.904Z,99445.80
2023-01-30T17:05:41.204Z,99452.53
2023-01-30T17:08:31.646Z,99442.91
2023-01-30T17:11:00.800Z,99443.23
2023-01-30T17:13:41.812Z,99433.05
2023-01-30T17:16:22.267Z,99432.36
2023-01-30T17:18:54.037Z,99440.66
2023-01-30T17:21:23.777Z,99434.66
2023-01-30T17:23:55.364Z,99435.21
2023-01-30T17:26:23.925Z,99431.61
2023-01-30T17:28:52.158Z,99428.00
2023-01-30T17:31:21.235Z,99422.13
2023-01-30T17:33:49.409Z,99417.85
2023-01-30T17:36:23.002Z,99420.83
2023-01-30T17:38:52.175Z,99411.55
2023-01-30T17:41:30.313Z,99408.48
2023-01-30T17:43:58.707Z,99401.98
2023-01-30T17:46:49.365Z,99396.53
2023-01-30T17:49:20.221Z,99397.75
2023-01-30T17:51:48.974Z,99394.42
2023-01-30T17:54:17.511Z,99395.47
2023-01-30T17:56:47.123Z,99391.90
2023-01-30T17:59:17.202Z,99395.85
2023-01-30T20:12:09.871Z,99360.42
2023-01-30T20:14:38.446Z,99359.86
2023-01-30T20:17:07.021Z,99356.98
2023-01-30T20:19:35.346Z,99351.56
2023-01-30T20:22:08.228Z,99343.39
2023-01-30T20:24:37.491Z,99347.48
2023-01-30T20:27:05.535Z,99346.90
2023-01-30T20:29:34.685Z,99345.39
2023-01-30T20:32:05.015Z,99346.89
2023-01-30T20:34:33.559Z,99346.42
2023-01-30T20:37:01.600Z,99344.72
2023-01-30T20:39:30.731Z,99342.77
2023-01-30T20:41:58.728Z,99343.01
2023-01-30T20:44:27.093Z,99344.69
2023-01-30T20:46:56.579Z,99342.77
2023-01-30T20:49:24.803Z,99338.69
2023-01-30T20:51:54.528Z,99342.99
2023-01-30T20:54:23.193Z,99339.05
2023-01-30T20:56:52.851Z,99338.05
2023-01-30T20:59:27.370Z,99340.27
2023-01-30T21:01:55.903Z,99336.88
2023-01-30T21:04:24.921Z,99334.83
2023-01-30T21:06:53.108Z,99334.00
2023-01-30T21:09:23.918Z,99330.61
2023-01-30T21:11:53.544Z,99331.35
2023-01-30T21:14:22.628Z,99331.34
2023-01-30T21:16:51.276Z,99331.61
2023-01-30T21:19:20.150Z,99330.88
2023-01-30T21:21:51.283Z,99328.96
2023-01-30T21:24:24.785Z,99321.02
2023-01-30T21:26:53.180Z,99315.67
2023-01-30T21:29:23.651Z,99309.44
2023-01-30T21:31:52.360Z,99310.73
2023-01-30T21:34:20.545Z,99310.41
2023-01-30T21:37:08.940Z,99320.59
2023-01-30T21:39:57.690Z,99324.45
2023-01-30T21:42:45.664Z,99326.90
2023-01-30T21:45:13.772Z,99324.88
2023-01-30T21:47:42.695Z,99317.15
2023-01-30T21:50:11.048Z,99317.53
2023-01-30T21:52:40.000Z,99319.11
2023-01-30T21:55:09.089Z,99325.92
2023-01-30T21:57:37.682Z,99328.78
2023-01-30T22:00:06.626Z,99325.29
2023-01-30T22:02:35.286Z,99318.20
2023-01-30T22:05:03.960Z,99317.63
2023-01-30T22:07:32.571Z,99312.30
2023-01-30T22:10:02.314Z,99312.41
2023-01-30T22:12:32.632Z,99318.72
2023-01-30T22:15:01.267Z,99324.69
2023-01-30T22:17:29.598Z,99325.49
2023-01-30T22:19:57.910Z,99318.46
2023-01-30T22:22:26.066Z,99315.42
2023-01-30T22:24:54.869Z,99312.55
2023-01-30T22:27:23.255Z,99307.06
2023-01-30T22:29:51.938Z,99300.02
2023-01-30T22:32:23.335Z,99302.69
2023-01-30T22:34:51.984Z,99298.95
2023-01-30T22:37:19.985Z,99292.17
2023-01-30T22:39:48.458Z,99292.27
2023-01-30T22:42:16.748Z,99289.73
2023-01-30T22:44:44.847Z,99291.28
2023-01-30T22:47:12.982Z,99288.04
2023-01-30T22:49:45.316Z,99290.83
2023-01-30T22:52:13.972Z,99290.26
2023-01-30T22:54:42.229Z,99292.40
2023-01-30T22:57:10.361Z,99291.81
2023-01-30T22:59:38.370Z,99288.51
2023-01-30T23:02:10.255Z,99291.36
2023-01-30T23:04:39.102Z,99292.27
2023-01-30T23:07:07.559Z,99290.80
2023-01-30T23:09:35.701Z,99292.06
2023-01-30T23:12:22.707Z,99290.40
2023-01-30T23:14:51.182Z,99291.77
2023-01-30T23:17:38.055Z,99292.63
2023-01-30T23:20:07.111Z,99287.77
2023-01-30T23:22:35.537Z,99282.60
2023-01-30T23:25:03.845Z,99282.56
2023-01-30T23:27:32.185Z,99278.77
2023-01-30T23:30:00.204Z,99275.15
2023-01-30T23:32:28.916Z,99273.41
2023-01-30T23:34:57.002Z,99270.89
2023-01-30T23:37:44.995Z,99269.91
2023-01-30T23:40:13.165Z,99267.55
2023-01-30T23:42:41.176Z,99262.23
2023-01-30T23:45:09.611Z,99261.94
2023-01-30T23:47:38.864Z,99263.02
2023-01-30T23:50:07.189Z,99257.19
2023-01-30T23:52:35.277Z,99260.63
2023-01-30T23:55:03.976Z,99257.38
2023-01-30T23:57:32.445Z,99252.73
